81IL weather

Illinois Valley Parachute Club Airport
Minier, Illinois, United States

Public forecast

Using degrees Fahrenheit for public forecast. Weather courtesy of forecast.io.

METAR (pilot weather report)

Closest report is Logan County Airport, 16.6 nm (30.7 km) S. Retrieved 2019/06/26 02:35 UTC (0 seconds ago):

KAAA 260235Z AUTO 22003KT 10SM VCTS SCT120 27/19 A2999 RMK AO2 LTG DSNT S THRU NW T02660188

TAF (pilot weather forecast)

Forecast is more than 12 hours old.

Closest forecast is Central Illinois Regional Airport at Bloomington-Normal, 20.3 nm (37.6 km) E. Retrieved 2019/06/25 00:30 UTC (1 day ago):

TAF KBMI 252328Z 2600/2624 21014G24KT P6SM SCT030 FM260200 23005KT P6SM VCTS SCT050CB BKN250 FM260800 23005KT P6SM SCT040 BKN150 FM261700 21012KT P6SM BKN250